createdAt,value
2022-08-19T00:00:39.740Z,24.68
2022-08-19T00:03:06.110Z,24.69
2022-08-19T00:05:32.476Z,24.44
2022-08-19T00:07:58.827Z,24.13
2022-08-19T00:10:25.205Z,23.58
2022-08-19T00:12:51.675Z,23.80
2022-08-19T00:15:18.153Z,23.79
2022-08-19T00:17:44.520Z,24.05
2022-08-19T00:20:10.878Z,24.24
2022-08-19T00:22:37.239Z,24.29
2022-08-19T00:25:03.616Z,24.51
2022-08-19T00:27:30.242Z,24.52
2022-08-19T00:29:56.603Z,24.50
2022-08-19T00:32:22.986Z,24.49
2022-08-19T00:34:50.307Z,24.18
2022-08-19T00:37:16.669Z,24.34
2022-08-19T00:39:43.072Z,24.53
2022-08-19T00:42:09.471Z,24.58
2022-08-19T00:44:35.834Z,24.56
2022-08-19T00:47:02.197Z,24.49
2022-08-19T00:49:28.559Z,24.09
2022-08-19T00:51:54.922Z,24.14
2022-08-19T00:54:29.143Z,24.35
2022-08-19T00:56:57.680Z,24.47
2022-08-19T01:00:01.923Z,24.40
2022-08-19T01:02:10.512Z,24.60
2022-08-19T01:04:36.867Z,24.67
2022-08-19T01:07:03.221Z,24.61
2022-08-19T01:09:29.571Z,24.70
2022-08-19T01:11:55.933Z,24.54
2022-08-19T01:14:22.301Z,24.65
2022-08-19T01:16:48.664Z,24.60
2022-08-19T01:19:15.026Z,24.60
2022-08-19T01:21:41.396Z,24.67
2022-08-19T01:24:07.743Z,24.65
2022-08-19T01:26:34.113Z,24.68
2022-08-19T01:29:01.126Z,24.68
2022-08-19T01:31:27.947Z,24.67
2022-08-19T01:33:54.402Z,24.54
2022-08-19T01:36:20.763Z,24.07
2022-08-19T01:38:47.141Z,24.12
2022-08-19T01:41:13.506Z,23.95
2022-08-19T01:44:13.188Z,23.94
2022-08-19T01:46:26.228Z,23.81
2022-08-19T01:48:52.580Z,23.83
2022-08-19T01:51:18.941Z,23.92
2022-08-19T01:53:45.301Z,24.05
2022-08-19T01:56:12.228Z,23.96
2022-08-19T01:58:38.588Z,23.95
2022-08-19T02:01:04.995Z,23.88
2022-08-19T02:03:31.354Z,23.92
2022-08-19T02:05:57.717Z,24.01
2022-08-19T02:08:24.072Z,24.11
2022-08-19T02:10:50.436Z,24.21
2022-08-19T02:13:16.805Z,24.34
2022-08-19T02:15:49.131Z,24.43
2022-08-19T02:18:15.500Z,24.49
2022-08-19T02:20:41.858Z,24.44
2022-08-19T02:23:13.897Z,24.41
2022-08-19T02:25:42.512Z,24.41
2022-08-19T02:28:08.879Z,24.42
2022-08-19T02:30:35.237Z,24.49
2022-08-19T02:33:01.615Z,24.46
2022-08-19T02:35:27.978Z,24.49
2022-08-19T02:37:54.338Z,24.47
2022-08-19T02:40:20.696Z,24.50
2022-08-19T02:42:47.129Z,24.56
2022-08-19T02:45:13.560Z,24.54
2022-08-19T02:47:39.937Z,24.55
2022-08-19T02:50:06.302Z,24.51
2022-08-19T02:52:32.657Z,24.56
2022-08-19T02:54:59.024Z,24.50
2022-08-19T02:57:25.387Z,24.55
2022-08-19T02:59:51.754Z,24.57
2022-08-19T03:02:18.114Z,24.52
2022-08-19T03:04:44.486Z,24.50
2022-08-19T03:07:11.457Z,24.52
2022-08-19T03:09:37.889Z,24.53
2022-08-19T03:12:04.257Z,24.64
2022-08-19T03:14:30.613Z,24.53
2022-08-19T03:16:56.967Z,24.54
2022-08-19T03:19:23.324Z,24.53
2022-08-19T03:21:49.675Z,24.54
2022-08-19T03:24:16.049Z,24.54
2022-08-19T03:26:42.434Z,24.46
2022-08-19T03:29:08.788Z,24.45
2022-08-19T03:31:41.548Z,24.48
2022-08-19T03:34:11.353Z,24.50
2022-08-19T03:36:38.087Z,24.50
2022-08-19T03:39:04.445Z,24.46
2022-08-19T03:41:44.413Z,24.47
2022-08-19T03:44:18.107Z,24.49
2022-08-19T03:46:45.120Z,24.49
2022-08-19T03:49:11.624Z,24.47
2022-08-19T03:51:40.841Z,24.47
2022-08-19T03:54:07.203Z,24.45
2022-08-19T03:56:33.569Z,24.50
2022-08-19T03:58:59.919Z,24.60
2022-08-19T04:01:30.848Z,24.45
2022-08-19T04:04:01.920Z,24.48
2022-08-19T04:06:29.763Z,24.42
2022-08-19T04:08:56.132Z,24.41
2022-08-19T04:11:22.496Z,24.43
2022-08-19T04:14:08.879Z,24.43
2022-08-19T04:16:35.440Z,24.45
2022-08-19T04:19:01.814Z,24.44
2022-08-19T04:21:28.178Z,24.47
2022-08-19T04:23:54.545Z,24.46
2022-08-19T04:26:22.211Z,24.48
2022-08-19T04:28:48.591Z,24.53
2022-08-19T04:31:14.948Z,24.62
2022-08-19T04:33:41.318Z,24.64
2022-08-19T04:36:07.687Z,24.64
2022-08-19T04:38:34.059Z,24.45
2022-08-19T04:41:00.419Z,24.58
2022-08-19T04:43:26.779Z,24.56
2022-08-19T04:45:56.872Z,24.56
2022-08-19T04:48:27.955Z,24.61
2022-08-19T04:50:54.445Z,24.48
2022-08-19T04:53:20.804Z,24.62
2022-08-19T04:55:47.163Z,24.49
2022-08-19T04:58:13.522Z,24.37
2022-08-19T05:00:39.926Z,24.52
2022-08-19T05:03:07.704Z,24.56
2022-08-19T05:05:45.205Z,24.68
2022-08-19T05:08:11.933Z,24.69
2022-08-19T05:10:41.538Z,24.79
2022-08-19T05:13:07.912Z,24.77
2022-08-19T05:15:34.268Z,24.74
2022-08-19T05:18:00.630Z,24.66
2022-08-19T05:20:27.000Z,24.66
2022-08-19T05:22:53.590Z,24.64
2022-08-19T05:25:20.414Z,24.60
2022-08-19T05:27:47.050Z,24.62
2022-08-19T05:30:13.428Z,24.63
2022-08-19T05:32:39.798Z,24.58
2022-08-19T05:35:06.185Z,24.50
2022-08-19T05:37:32.557Z,24.62
2022-08-19T05:39:58.997Z,24.62
2022-08-19T05:42:25.408Z,24.52
2022-08-19T05:44:51.786Z,24.51
2022-08-19T05:47:18.157Z,24.50
2022-08-19T05:49:44.520Z,24.48
2022-08-19T05:52:10.883Z,24.49
2022-08-19T05:54:37.893Z,24.58
2022-08-19T05:57:04.264Z,24.52
2022-08-19T05:59:30.637Z,24.65
2022-08-19T06:01:57.932Z,24.58
2022-08-19T06:04:24.301Z,24.54
2022-08-19T06:06:50.663Z,24.56
2022-08-19T06:09:17.022Z,24.49
2022-08-19T06:11:43.402Z,24.54
2022-08-19T06:14:09.771Z,24.57
2022-08-19T06:16:42.975Z,24.59
2022-08-19T06:19:09.352Z,24.57
2022-08-19T06:21:35.709Z,24.50
2022-08-19T06:24:02.091Z,24.59
2022-08-19T06:26:28.465Z,24.63
2022-08-19T06:28:54.833Z,24.51
2022-08-19T06:31:21.197Z,24.57
2022-08-19T06:33:47.568Z,24.39
2022-08-19T06:36:16.549Z,24.57
2022-08-19T06:38:42.915Z,24.44
2022-08-19T06:41:12.250Z,24.53
2022-08-19T06:43:42.196Z,24.37
2022-08-19T06:46:08.738Z,24.43
2022-08-19T06:48:39.352Z,24.40
2022-08-19T06:51:11.670Z,24.43
2022-08-19T06:53:38.089Z,24.39
2022-08-19T06:56:05.133Z,24.33
2022-08-19T06:58:31.509Z,24.32
2022-08-19T07:00:58.262Z,24.23
2022-08-19T07:03:24.626Z,24.07
2022-08-19T07:05:50.999Z,24.26
2022-08-19T07:08:17.476Z,24.17
2022-08-19T07:10:45.099Z,24.22
2022-08-19T07:13:11.492Z,24.31
2022-08-19T07:15:37.847Z,24.36
2022-08-19T07:18:06.196Z,24.35
2022-08-19T07:20:32.582Z,24.40
2022-08-19T07:23:01.045Z,24.44
2022-08-19T07:25:32.160Z,24.44
2022-08-19T07:27:59.245Z,24.36
2022-08-19T07:30:28.039Z,24.42
2022-08-19T07:32:54.417Z,24.48
2022-08-19T07:35:20.790Z,24.43
2022-08-19T07:37:47.195Z,24.49
2022-08-19T07:40:13.685Z,24.50
2022-08-19T07:42:40.097Z,24.53
2022-08-19T07:45:06.472Z,24.45
2022-08-19T07:47:49.838Z,24.39
2022-08-19T07:50:17.323Z,24.34
2022-08-19T07:52:43.675Z,24.45
2022-08-19T07:55:40.310Z,24.46
2022-08-19T07:57:56.368Z,24.44
2022-08-19T08:00:24.252Z,24.52
2022-08-19T08:02:51.121Z,24.46
2022-08-19T08:05:17.790Z,24.46
2022-08-19T08:07:46.511Z,24.52
2022-08-19T08:10:20.399Z,24.47
2022-08-19T08:12:58.385Z,24.45
2022-08-19T08:15:36.626Z,24.44
2022-08-19T08:18:06.369Z,24.47
2022-08-19T08:20:34.121Z,24.44
2022-08-19T08:23:02.209Z,24.38
2022-08-19T08:25:28.572Z,24.32
2022-08-19T08:27:58.977Z,24.42
2022-08-19T08:30:25.447Z,24.38
2022-08-19T08:32:57.312Z,24.26
2022-08-19T08:35:24.704Z,24.32
2022-08-19T08:37:51.343Z,24.42
2022-08-19T08:40:17.898Z,24.21
2022-08-19T08:42:44.339Z,24.20
2022-08-19T08:45:10.697Z,24.26
2022-08-19T08:47:37.054Z,24.36
2022-08-19T08:50:04.673Z,24.36
2022-08-19T08:52:31.816Z,24.39
2022-08-19T08:54:59.640Z,24.44
2022-08-19T08:57:26.009Z,24.34
2022-08-19T08:59:52.365Z,24.36
2022-08-19T09:02:18.735Z,24.36
2022-08-19T09:04:45.092Z,24.46
2022-08-19T09:07:26.389Z,24.27
2022-08-19T09:09:57.838Z,24.17
2022-08-19T09:12:26.910Z,24.17
2022-08-19T09:14:53.501Z,24.20
2022-08-19T09:17:19.860Z,24.25
2022-08-19T09:19:46.793Z,24.38
2022-08-19T09:22:13.740Z,24.40
2022-08-19T09:24:51.823Z,24.41
2022-08-19T09:27:18.843Z,24.42
2022-08-19T09:29:45.310Z,24.24
2022-08-19T09:32:26.344Z,24.21
2022-08-19T09:34:53.500Z,24.35
2022-08-19T09:37:20.812Z,24.41
2022-08-19T09:39:47.203Z,24.44
2022-08-19T09:42:16.159Z,24.50
2022-08-19T09:44:46.700Z,24.55
2022-08-19T09:47:13.069Z,24.49
2022-08-19T09:49:39.425Z,24.46
2022-08-19T09:52:06.973Z,24.46
2022-08-19T09:54:33.340Z,24.58
2022-08-19T09:57:04.668Z,24.37
2022-08-19T09:59:34.112Z,24.29
2022-08-19T10:02:03.842Z,24.22
2022-08-19T10:04:37.101Z,24.31
2022-08-19T10:07:03.472Z,24.34
2022-08-19T10:09:34.395Z,24.27
2022-08-19T10:12:01.470Z,24.15
2022-08-19T10:14:29.118Z,24.21
2022-08-19T10:16:55.492Z,24.27
2022-08-19T10:19:25.985Z,24.43
2022-08-19T10:21:52.635Z,24.52
2022-08-19T10:24:19.483Z,24.56
2022-08-19T10:26:45.837Z,24.56
2022-08-19T10:29:13.261Z,24.63
2022-08-19T10:32:02.327Z,24.60
2022-08-19T10:34:29.426Z,24.50
2022-08-19T10:36:56.321Z,24.60
2022-08-19T10:39:23.541Z,24.64
2022-08-19T10:41:49.951Z,24.65
2022-08-19T10:44:16.325Z,24.76
2022-08-19T10:46:46.048Z,24.69
2022-08-19T10:49:14.720Z,24.66
2022-08-19T10:51:47.921Z,24.70
2022-08-19T10:54:15.088Z,24.67
2022-08-19T10:56:41.790Z,24.68
2022-08-19T10:59:08.158Z,24.74
2022-08-19T11:01:34.560Z,24.68
2022-08-19T11:04:00.944Z,24.73
2022-08-19T11:06:27.307Z,24.78
2022-08-19T11:08:53.665Z,24.72
2022-08-19T11:11:20.020Z,24.70
2022-08-19T11:13:46.376Z,24.57
2022-08-19T11:16:12.750Z,24.57
2022-08-19T11:18:39.186Z,24.57
2022-08-19T11:21:05.560Z,24.59
2022-08-19T11:23:31.919Z,24.49
2022-08-19T11:25:58.276Z,24.35
2022-08-19T11:28:24.638Z,24.44
2022-08-19T11:30:51.017Z,24.35
2022-08-19T11:33:17.385Z,24.45
2022-08-19T11:35:43.756Z,24.62
2022-08-19T11:38:10.109Z,24.67
2022-08-19T11:40:36.483Z,24.71
2022-08-19T11:43:02.847Z,24.71
2022-08-19T11:45:29.201Z,24.71
2022-08-19T11:47:55.611Z,24.78
2022-08-19T11:50:22.112Z,24.79
2022-08-19T11:52:48.501Z,24.61
2022-08-19T11:55:14.863Z,24.70
2022-08-19T11:57:41.230Z,24.66
2022-08-19T12:00:07.584Z,24.68
2022-08-19T12:02:33.941Z,24.64
2022-08-19T12:05:00.305Z,24.60
2022-08-19T12:07:26.655Z,24.60
2022-08-19T12:09:53.015Z,24.68
2022-08-19T12:12:21.434Z,24.62
2022-08-19T12:14:47.785Z,24.65
2022-08-19T12:17:14.157Z,24.69
2022-08-19T12:19:40.517Z,24.68
2022-08-19T12:22:06.881Z,24.52
2022-08-19T12:24:33.236Z,24.60
2022-08-19T12:27:02.879Z,24.66
2022-08-19T12:29:29.591Z,24.74
2022-08-19T12:31:55.984Z,24.76
2022-08-19T12:34:22.355Z,24.81
2022-08-19T12:36:48.732Z,24.74
2022-08-19T12:39:15.115Z,24.73
2022-08-19T12:41:51.447Z,24.64
2022-08-19T12:44:21.276Z,24.46
2022-08-19T12:46:56.032Z,24.58
2022-08-19T12:49:53.790Z,24.64
2022-08-19T12:52:08.732Z,24.52
2022-08-19T12:54:35.105Z,24.42
2022-08-19T12:57:01.473Z,24.58
2022-08-19T12:59:27.832Z,24.60
2022-08-19T13:01:54.189Z,24.66
2022-08-19T13:04:20.562Z,24.72
2022-08-19T13:06:46.917Z,24.71
2022-08-19T13:09:13.280Z,24.75
2022-08-19T13:11:39.641Z,24.74
2022-08-19T13:14:06.000Z,24.71
2022-08-19T13:16:32.369Z,24.74
2022-08-19T13:18:58.745Z,24.80
2022-08-19T13:21:25.112Z,24.84
2022-08-19T13:23:51.473Z,24.83
2022-08-19T13:26:17.831Z,24.71
2022-08-19T13:28:44.194Z,24.81
2022-08-19T13:31:10.571Z,24.77
2022-08-19T13:33:38.007Z,24.80
2022-08-19T13:36:04.363Z,24.73
2022-08-19T13:38:30.719Z,24.76
2022-08-19T13:40:57.075Z,24.79
2022-08-19T13:43:23.890Z,24.78
2022-08-19T13:45:50.325Z,24.81
2022-08-19T13:48:16.676Z,24.78
2022-08-19T13:50:43.031Z,24.77
2022-08-19T13:53:09.422Z,24.81
2022-08-19T13:55:35.775Z,24.78
2022-08-19T13:58:02.165Z,24.71
2022-08-19T14:00:28.606Z,24.83
2022-08-19T14:02:54.990Z,24.85
2022-08-19T14:05:21.365Z,24.87
2022-08-19T14:07:47.785Z,24.86
2022-08-19T14:10:14.193Z,24.92
2022-08-19T14:12:40.542Z,24.85
2022-08-19T14:15:06.908Z,24.58
2022-08-19T14:17:33.262Z,24.55
2022-08-19T14:19:59.625Z,24.72
2022-08-19T14:22:29.883Z,24.83
2022-08-19T14:24:56.245Z,24.82
2022-08-19T14:27:22.623Z,24.72
2022-08-19T14:29:48.987Z,24.71
2022-08-19T14:32:16.727Z,24.77
2022-08-19T14:34:43.361Z,24.74
2022-08-19T14:37:09.740Z,24.66
2022-08-19T14:39:40.836Z,24.73
2022-08-19T14:42:11.081Z,24.76
2022-08-19T14:44:37.880Z,24.78
2022-08-19T14:47:04.244Z,24.83
2022-08-19T14:49:34.969Z,24.83
2022-08-19T14:52:07.518Z,24.82
2022-08-19T14:54:33.896Z,24.78
2022-08-19T14:57:00.294Z,24.82
2022-08-19T14:59:26.665Z,24.80
2022-08-19T15:01:53.081Z,24.76
2022-08-19T15:04:19.453Z,24.79
2022-08-19T15:06:45.814Z,24.81
2022-08-19T15:09:12.179Z,24.75
2022-08-19T15:11:38.548Z,24.69
2022-08-19T15:14:04.921Z,24.77
2022-08-19T15:16:31.292Z,24.82
2022-08-19T15:18:57.656Z,24.76
2022-08-19T15:21:26.533Z,24.77
2022-08-19T15:23:53.903Z,24.78
2022-08-19T15:26:20.287Z,24.77
2022-08-19T15:28:46.657Z,24.73
2022-08-19T15:31:17.153Z,24.79
2022-08-19T15:33:54.955Z,24.81
2022-08-19T15:36:21.325Z,24.81
2022-08-19T15:38:47.691Z,24.83
2022-08-19T15:41:14.681Z,24.83
2022-08-19T15:43:41.045Z,24.87
2022-08-19T15:46:07.512Z,24.81
2022-08-19T15:48:33.893Z,24.80
2022-08-19T15:51:00.261Z,24.83
2022-08-19T15:53:26.623Z,24.80
2022-08-19T15:55:52.976Z,24.81
2022-08-19T15:58:21.839Z,24.80
2022-08-19T16:00:55.456Z,24.73
2022-08-19T16:03:21.946Z,24.80
2022-08-19T16:05:48.304Z,24.79
2022-08-19T16:08:14.683Z,24.76
2022-08-19T16:10:41.078Z,24.77
2022-08-19T16:13:07.494Z,24.77
2022-08-19T16:15:33.901Z,24.72
2022-08-19T16:18:00.349Z,24.77
2022-08-19T16:20:27.186Z,24.78
2022-08-19T16:22:53.671Z,24.77
2022-08-19T16:25:20.031Z,24.76
2022-08-19T16:28:06.716Z,24.74
2022-08-19T16:30:32.749Z,24.75
2022-08-19T16:32:59.112Z,24.77
2022-08-19T16:35:25.482Z,24.73
2022-08-19T16:37:51.840Z,24.73
2022-08-19T16:40:18.276Z,24.75
2022-08-19T16:42:44.680Z,24.72
2022-08-19T16:45:11.064Z,24.75
2022-08-19T16:47:37.428Z,24.76
2022-08-19T16:50:03.784Z,24.76
2022-08-19T16:52:30.143Z,24.74
2022-08-19T16:54:56.561Z,24.75
2022-08-19T16:57:22.930Z,24.76
2022-08-19T16:59:49.602Z,24.78
2022-08-19T17:02:16.010Z,24.76
2022-08-19T17:04:42.386Z,24.72
2022-08-19T17:07:08.769Z,24.74
2022-08-19T17:09:35.142Z,24.66
2022-08-19T17:12:04.344Z,24.68
2022-08-19T17:14:30.704Z,24.75
2022-08-19T17:16:57.101Z,24.74
2022-08-19T17:19:23.460Z,24.79
2022-08-19T17:21:49.830Z,24.75
2022-08-19T17:24:16.193Z,24.76
2022-08-19T17:26:42.555Z,24.73
2022-08-19T17:29:08.938Z,24.85
2022-08-19T17:31:35.296Z,24.82
2022-08-19T17:34:01.659Z,24.74
2022-08-19T17:36:30.134Z,24.81
2022-08-19T17:38:56.522Z,24.87
2022-08-19T17:41:22.913Z,24.89
2022-08-19T17:43:49.279Z,24.84
2022-08-19T17:46:18.151Z,24.83
2022-08-19T17:48:48.389Z,24.89
2022-08-19T17:51:17.177Z,24.88
2022-08-19T17:53:47.654Z,24.72
2022-08-19T17:56:14.019Z,24.96
2022-08-19T17:58:40.400Z,24.92
2022-08-19T18:01:08.397Z,25.02
2022-08-19T18:03:36.524Z,24.88
2022-08-19T18:06:03.128Z,24.98
2022-08-19T18:08:29.538Z,25.01
2022-08-19T18:10:55.900Z,25.09
2022-08-19T18:13:22.270Z,25.18
2022-08-19T18:15:48.652Z,25.17
2022-08-19T18:18:15.458Z,25.21
2022-08-19T18:20:42.076Z,25.22
2022-08-19T18:23:44.775Z,25.24
2022-08-19T18:25:54.786Z,25.22
2022-08-19T18:28:21.144Z,25.22
2022-08-19T18:30:47.501Z,25.09
2022-08-19T18:33:13.877Z,25.18
2022-08-19T18:35:40.251Z,25.16
2022-08-19T18:38:06.617Z,25.18
2022-08-19T18:40:33.000Z,25.15
2022-08-19T18:42:59.373Z,25.20
2022-08-19T18:45:25.757Z,25.14
2022-08-19T18:47:52.126Z,25.15
2022-08-19T18:50:18.505Z,25.12
2022-08-19T18:52:45.091Z,25.12
2022-08-19T18:55:11.584Z,25.09
2022-08-19T18:57:37.945Z,25.12
2022-08-19T19:00:04.307Z,25.06
2022-08-19T19:02:30.664Z,24.82
2022-08-19T19:04:57.030Z,25.05
2022-08-19T19:07:23.387Z,25.03
2022-08-19T19:09:49.760Z,25.07
2022-08-19T19:12:16.121Z,25.08
2022-08-19T19:14:50.232Z,25.07
2022-08-19T19:17:16.876Z,25.08
2022-08-19T19:19:43.256Z,25.04
2022-08-19T19:22:09.616Z,25.03
2022-08-19T19:24:35.984Z,25.03
2022-08-19T19:27:02.356Z,25.06
2022-08-19T19:29:28.820Z,25.03
2022-08-19T19:31:55.191Z,24.96
2022-08-19T19:34:29.116Z,25.04
2022-08-19T19:36:56.335Z,25.00
2022-08-19T19:39:30.664Z,24.99
2022-08-19T19:42:09.058Z,25.03
2022-08-19T19:44:40.052Z,25.00
2022-08-19T19:47:13.673Z,25.03
2022-08-19T19:49:52.722Z,25.01
2022-08-19T19:52:26.388Z,25.04
2022-08-19T19:54:52.762Z,25.05
2022-08-19T19:57:19.129Z,25.03
2022-08-19T19:59:51.313Z,25.02
2022-08-19T20:02:18.168Z,24.99
2022-08-19T20:04:44.558Z,25.00
2022-08-19T20:07:10.917Z,24.97
2022-08-19T20:09:58.214Z,24.96
2022-08-19T20:12:23.616Z,24.97
2022-08-19T20:14:49.980Z,24.98
2022-08-19T20:17:16.348Z,24.97
2022-08-19T20:19:42.741Z,24.94
2022-08-19T20:22:09.138Z,24.96
2022-08-19T20:24:35.501Z,24.90
2022-08-19T20:27:01.859Z,24.99
2022-08-19T20:29:39.585Z,25.01
2022-08-19T20:32:08.129Z,24.97
2022-08-19T20:34:34.500Z,24.97
2022-08-19T20:37:00.914Z,24.93
2022-08-19T20:39:27.272Z,24.92
2022-08-19T20:41:53.635Z,24.92
2022-08-19T20:44:20.013Z,24.95
2022-08-19T20:46:54.580Z,24.98
2022-08-19T20:49:22.075Z,24.96
2022-08-19T20:51:48.436Z,24.95
2022-08-19T20:54:18.512Z,24.98
2022-08-19T20:56:44.947Z,25.00
2022-08-19T20:59:11.305Z,24.92
2022-08-19T21:01:37.664Z,24.95
2022-08-19T21:04:05.428Z,24.89
2022-08-19T21:06:31.788Z,24.90
2022-08-19T21:08:58.621Z,24.89
2022-08-19T21:11:24.986Z,24.83
2022-08-19T21:13:51.352Z,24.92
2022-08-19T21:16:17.716Z,24.85
2022-08-19T21:18:44.087Z,24.80
2022-08-19T21:21:10.456Z,24.79
2022-08-19T21:23:36.820Z,24.83
2022-08-19T21:26:03.203Z,24.84
2022-08-19T21:28:29.929Z,24.75
2022-08-19T21:31:02.652Z,24.73
2022-08-19T21:33:30.009Z,24.67
2022-08-19T21:35:58.321Z,24.65
2022-08-19T21:38:24.701Z,24.58
2022-08-19T21:40:51.072Z,24.59
2022-08-19T21:43:17.428Z,24.60
2022-08-19T21:45:43.787Z,24.52
2022-08-19T21:48:10.152Z,24.61
2022-08-19T21:50:36.515Z,24.64
2022-08-19T21:53:02.887Z,24.58
2022-08-19T21:55:29.256Z,24.59
2022-08-19T21:57:55.852Z,24.55
2022-08-19T22:00:22.362Z,24.49
2022-08-19T22:02:49.040Z,24.42
2022-08-19T22:05:15.399Z,24.49
2022-08-19T22:07:41.760Z,24.45
2022-08-19T22:10:08.131Z,24.39
2022-08-19T22:12:34.512Z,24.37
2022-08-19T22:15:00.875Z,24.45
2022-08-19T22:17:27.237Z,24.45
2022-08-19T22:19:53.613Z,24.43
2022-08-19T22:22:19.983Z,24.42
2022-08-19T22:24:46.357Z,24.41
2022-08-19T22:27:12.722Z,24.45
2022-08-19T22:29:39.281Z,24.38
2022-08-19T22:32:26.692Z,24.45
2022-08-19T22:34:51.983Z,24.46
2022-08-19T22:37:18.345Z,24.47
2022-08-19T22:39:44.735Z,24.47
2022-08-19T22:42:11.153Z,24.49
2022-08-19T22:44:37.512Z,24.45
2022-08-19T22:47:03.882Z,24.44
2022-08-19T22:49:30.255Z,24.42
2022-08-19T22:51:56.632Z,24.42
2022-08-19T22:54:22.998Z,24.40
2022-08-19T22:56:49.352Z,24.40
2022-08-19T22:59:15.727Z,24.38
2022-08-19T23:01:42.090Z,24.28
2022-08-19T23:04:08.456Z,24.26
2022-08-19T23:06:38.115Z,24.31
2022-08-19T23:09:06.680Z,24.28
2022-08-19T23:11:33.689Z,24.26
2022-08-19T23:14:00.073Z,24.38
2022-08-19T23:16:26.442Z,24.44
2022-08-19T23:18:55.999Z,24.34
2022-08-19T23:21:22.596Z,24.29
2022-08-19T23:23:48.982Z,24.32
2022-08-19T23:26:15.352Z,24.44
2022-08-19T23:28:41.927Z,24.28
2022-08-19T23:31:08.318Z,24.41
2022-08-19T23:33:46.477Z,24.45
2022-08-19T23:36:18.064Z,24.41
2022-08-19T23:38:44.438Z,24.32
2022-08-19T23:41:10.806Z,24.32
2022-08-19T23:43:37.164Z,24.31
2022-08-19T23:46:10.428Z,24.31
2022-08-19T23:48:37.145Z,24.36
2022-08-19T23:51:03.508Z,24.35
2022-08-19T23:53:29.878Z,24.35
2022-08-19T23:55:56.260Z,24.46
2022-08-19T23:58:22.625Z,24.46
